createdAt,value
2022-11-27T00:05:33.115Z,971.43
2022-11-27T00:16:35.024Z,971.43
2022-11-27T00:22:07.409Z,971.45
2022-11-27T00:27:39.306Z,971.49
2022-11-27T00:33:11.259Z,971.45
2022-11-27T00:38:43.084Z,971.43
2022-11-27T00:44:14.804Z,971.36
2022-11-27T00:49:46.588Z,971.26
2022-11-27T00:55:18.917Z,971.18
2022-11-27T01:00:51.060Z,971.16
2022-11-27T01:06:23.097Z,971.14
2022-11-27T01:11:55.314Z,971.08
2022-11-27T01:17:27.714Z,971.04
2022-11-27T01:22:59.836Z,971.02
2022-11-27T01:28:32.287Z,970.95
2022-11-27T01:34:04.185Z,970.93
2022-11-27T01:39:36.022Z,970.91
2022-11-27T01:45:07.783Z,970.89
2022-11-27T01:50:39.699Z,970.83
2022-11-27T01:56:11.296Z,970.83
2022-11-27T02:01:43.237Z,970.81
2022-11-27T02:07:14.957Z,970.79
2022-11-27T02:12:46.823Z,970.73
2022-11-27T02:18:18.281Z,970.65
2022-11-27T02:23:50.220Z,970.61
2022-11-27T02:29:22.154Z,970.53
2022-11-27T02:34:53.902Z,970.46
2022-11-27T02:40:25.846Z,970.38
2022-11-27T02:51:27.675Z,970.30
2022-11-27T02:56:59.435Z,970.22
2022-11-27T03:02:31.489Z,970.14
2022-11-27T03:04:43.474Z,969.95
2022-11-27T03:10:15.393Z,969.91
2022-11-27T03:15:47.256Z,969.87
2022-11-27T03:21:19.240Z,969.87
2022-11-27T03:26:51.047Z,969.85
2022-11-27T03:32:23.084Z,969.85
2022-11-27T03:43:24.859Z,969.73
2022-11-27T03:48:56.717Z,969.73
2022-11-27T03:54:28.614Z,969.65
2022-11-27T04:00:00.351Z,969.59
2022-11-27T04:05:32.274Z,969.55
2022-11-27T04:11:03.970Z,969.55
2022-11-27T04:16:36.080Z,969.55
2022-11-27T04:22:07.882Z,969.59
2022-11-27T04:27:40.084Z,969.59
2022-11-27T04:33:12.262Z,969.57
2022-11-27T04:38:44.446Z,969.53
2022-11-27T04:44:16.402Z,969.51
2022-11-27T04:49:48.084Z,969.51
2022-11-27T04:55:19.897Z,969.55
2022-11-27T05:00:52.058Z,969.57
2022-11-27T05:06:23.878Z,969.61
2022-11-27T05:11:55.695Z,969.59
2022-11-27T05:17:27.304Z,969.61
2022-11-27T05:22:59.636Z,969.53
2022-11-27T05:28:32.103Z,969.55
2022-11-27T05:34:03.503Z,969.57
2022-11-27T05:39:35.428Z,969.57
2022-11-27T05:45:07.333Z,969.55
2022-11-27T05:50:39.287Z,969.51
2022-11-27T05:56:11.756Z,969.46
2022-11-27T06:01:43.986Z,969.42
2022-11-27T06:07:15.816Z,969.32
2022-11-27T06:12:47.944Z,969.42
2022-11-27T06:18:20.160Z,969.32
2022-11-27T06:23:52.397Z,969.28
2022-11-27T06:29:24.987Z,969.28
2022-11-27T06:34:56.611Z,969.30
2022-11-27T06:40:28.674Z,969.30
2022-11-27T06:46:00.484Z,969.30
2022-11-27T06:51:32.500Z,969.28
2022-11-27T06:57:04.300Z,969.28
2022-11-27T07:02:36.483Z,969.24
2022-11-27T07:08:09.470Z,969.22
2022-11-27T07:10:39.735Z,969.20
2022-11-27T07:16:13.933Z,969.18
2022-11-27T07:21:35.530Z,969.18
2022-11-27T07:27:10.413Z,969.16
2022-11-27T07:32:46.934Z,969.12
2022-11-27T07:38:21.991Z,969.12
2022-11-27T07:46:14.833Z,968.96
2022-11-27T07:57:15.430Z,968.92
2022-11-27T08:02:47.075Z,968.88
2022-11-27T08:08:18.882Z,968.92
2022-11-27T08:13:51.131Z,968.90
2022-11-27T08:19:24.570Z,968.88
2022-11-27T08:25:05.771Z,968.85
2022-11-27T08:36:00.230Z,968.69
2022-11-27T08:41:03.071Z,968.73
2022-11-27T08:46:34.561Z,968.73
2022-11-27T08:52:06.537Z,968.71
2022-11-27T08:57:38.367Z,968.73
2022-11-27T09:03:10.462Z,968.75
2022-11-27T09:08:42.429Z,968.69
2022-11-27T09:14:14.353Z,968.69
2022-11-27T09:19:46.966Z,968.63
2022-11-27T09:25:18.841Z,968.63
2022-11-27T09:30:50.571Z,968.59
2022-11-27T09:36:22.275Z,968.57
2022-11-27T09:41:54.169Z,968.55
2022-11-27T09:47:25.930Z,968.47
2022-11-27T09:52:57.873Z,968.38
2022-11-27T09:58:29.663Z,968.22
2022-11-27T10:04:01.087Z,968.12
2022-11-27T10:09:33.131Z,968.08
2022-11-27T10:15:04.937Z,968.02
2022-11-27T10:20:36.728Z,967.94
2022-11-27T10:26:08.383Z,967.87
2022-11-27T10:31:40.432Z,967.79
2022-11-27T10:37:12.410Z,967.71
2022-11-27T10:42:44.236Z,967.67
2022-11-27T10:48:15.880Z,967.63
2022-11-27T10:53:47.576Z,967.59
2022-11-27T10:59:19.479Z,967.59
2022-11-27T11:05:09.142Z,967.53
2022-11-27T11:10:22.868Z,967.47
2022-11-27T11:15:54.846Z,967.49
2022-11-27T11:21:26.502Z,967.51
2022-11-27T11:26:58.124Z,967.51
2022-11-27T11:32:30.300Z,967.51
2022-11-27T11:38:02.138Z,967.45
2022-11-27T11:43:34.184Z,967.45
2022-11-27T11:49:11.792Z,967.41
2022-11-27T11:54:44.022Z,967.41
2022-11-27T12:00:15.641Z,967.37
2022-11-27T12:05:47.316Z,967.36
2022-11-27T12:11:19.319Z,967.24
2022-11-27T12:16:51.392Z,967.18
2022-11-27T12:22:23.451Z,967.14
2022-11-27T12:27:55.025Z,967.04
2022-11-27T12:33:26.852Z,966.96
2022-11-27T12:38:58.739Z,966.90
2022-11-27T12:44:30.303Z,966.87
2022-11-27T12:50:02.200Z,966.73
2022-11-27T12:55:33.904Z,966.63
2022-11-27T13:01:05.842Z,966.53
2022-11-27T13:06:37.670Z,966.45
2022-11-27T13:12:09.488Z,966.41
2022-11-27T13:17:41.065Z,966.35
2022-11-27T13:23:13.218Z,966.26
2022-11-27T13:28:45.578Z,966.22
2022-11-27T13:34:17.399Z,966.20
2022-11-27T13:39:49.173Z,966.18
2022-11-27T13:45:21.238Z,966.16
2022-11-27T13:50:53.566Z,966.14
2022-11-27T13:56:25.411Z,966.06
2022-11-27T14:01:57.497Z,966.00
2022-11-27T14:07:29.710Z,965.94
2022-11-27T14:13:01.570Z,965.88
2022-11-27T14:18:33.780Z,965.84
2022-11-27T14:24:05.368Z,965.77
2022-11-27T14:29:37.357Z,965.75
2022-11-27T14:35:09.413Z,965.75
2022-11-27T14:40:46.941Z,965.77
2022-11-27T14:46:18.935Z,965.73
2022-11-27T14:51:50.796Z,965.67
2022-11-27T14:57:22.584Z,965.61
2022-11-27T15:02:54.661Z,965.57
2022-11-27T15:08:26.591Z,965.53
2022-11-27T15:13:58.774Z,965.47
2022-11-27T15:19:30.224Z,965.39
2022-11-27T15:25:02.672Z,965.37
2022-11-27T15:30:34.719Z,965.35
2022-11-27T15:36:06.393Z,965.30
2022-11-27T15:41:43.393Z,965.20
2022-11-27T15:47:10.318Z,965.12
2022-11-27T15:52:42.309Z,965.02
2022-11-27T15:58:14.202Z,964.96
2022-11-27T16:03:46.394Z,964.88
2022-11-27T16:09:18.166Z,964.83
2022-11-27T16:14:49.870Z,964.79
2022-11-27T16:20:21.711Z,964.69
2022-11-27T16:25:53.306Z,964.65
2022-11-27T16:31:31.063Z,964.59
2022-11-27T16:37:02.663Z,964.53
2022-11-27T16:42:34.441Z,964.47
2022-11-27T16:48:06.381Z,964.43
2022-11-27T16:53:38.567Z,964.33
2022-11-27T16:59:10.264Z,964.18
2022-11-27T17:04:42.224Z,964.04
2022-11-27T17:10:13.947Z,963.94
2022-11-27T17:15:45.840Z,963.82
2022-11-27T17:21:18.076Z,963.71
2022-11-27T17:26:49.863Z,963.63
2022-11-27T17:32:21.585Z,963.59
2022-11-27T17:37:53.480Z,963.47
2022-11-27T17:43:27.891Z,963.43
2022-11-27T17:48:59.576Z,963.43
2022-11-27T17:54:31.462Z,963.41
2022-11-27T18:00:03.138Z,963.35
2022-11-27T18:05:35.111Z,963.35
2022-11-27T18:11:06.845Z,963.31
2022-11-27T18:16:38.599Z,963.27
2022-11-27T18:22:10.285Z,963.18
2022-11-27T18:27:42.137Z,963.08
2022-11-27T18:33:21.371Z,962.96
2022-11-27T18:38:53.715Z,962.90
2022-11-27T18:44:27.918Z,962.84
2022-11-27T18:50:00.002Z,962.80
2022-11-27T18:55:31.852Z,962.74
2022-11-27T19:01:03.971Z,962.59
2022-11-27T19:06:41.798Z,962.55
2022-11-27T19:12:13.773Z,962.55
2022-11-27T19:17:51.940Z,962.51
2022-11-27T19:23:29.587Z,962.47
2022-11-27T19:29:01.621Z,962.43
2022-11-27T19:34:33.851Z,962.43
2022-11-27T19:40:06.201Z,962.39
2022-11-27T19:45:38.795Z,962.33
2022-11-27T19:51:10.426Z,962.23
2022-11-27T19:56:42.445Z,962.16
2022-11-27T20:02:14.603Z,962.04
2022-11-27T20:07:45.952Z,961.96
2022-11-27T20:13:17.800Z,961.90
2022-11-27T20:18:50.036Z,961.82
2022-11-27T20:24:22.039Z,961.78
2022-11-27T20:26:45.796Z,961.69
2022-11-27T20:32:17.497Z,961.59
2022-11-27T20:37:49.994Z,961.59
2022-11-27T20:43:21.836Z,961.51
2022-11-27T20:48:53.737Z,961.43
2022-11-27T20:54:26.798Z,961.35
2022-11-27T20:59:58.753Z,961.27
2022-11-27T21:05:30.344Z,961.21
2022-11-27T21:16:32.149Z,961.00
2022-11-27T21:22:04.223Z,960.92
2022-11-27T21:27:36.175Z,960.80
2022-11-27T21:33:08.350Z,960.78
2022-11-27T21:38:40.161Z,960.74
2022-11-27T21:44:12.432Z,960.70
2022-11-27T21:49:44.387Z,960.65
2022-11-27T21:55:16.914Z,960.67
2022-11-27T22:00:48.890Z,960.63
2022-11-27T22:06:23.820Z,960.57
2022-11-27T22:11:55.636Z,960.55
2022-11-27T22:17:33.403Z,960.49
2022-11-27T22:23:05.212Z,960.39
2022-11-27T22:28:36.883Z,960.35
2022-11-27T22:34:09.053Z,960.25
2022-11-27T22:39:41.336Z,960.18
2022-11-27T22:45:13.717Z,960.14
2022-11-27T22:50:45.770Z,960.08
2022-11-27T22:56:17.701Z,960.02
2022-11-27T23:07:27.816Z,959.86
2022-11-27T23:13:01.992Z,959.78
2022-11-27T23:18:34.042Z,959.76
2022-11-27T23:24:12.123Z,959.70
2022-11-27T23:35:14.298Z,959.61
2022-11-27T23:40:46.031Z,959.59
2022-11-27T23:46:17.869Z,959.53
2022-11-27T23:51:49.993Z,959.49
2022-11-27T23:57:21.850Z,959.45
